sensor_id;sensor_type;location;lat;lon;timestamp;P1;durP1;ratioP1;P2;durP2;ratioP2
37085;SDS011;23001;45.952;12.676;2024-03-07T00:00:08;8.95;;;8.05;;
37085;SDS011;23001;45.952;12.676;2024-03-07T00:02:46;9.63;;;8.63;;
37085;SDS011;23001;45.952;12.676;2024-03-07T00:05:14;9.55;;;8.60;;
37085;SDS011;23001;45.952;12.676;2024-03-07T00:07:41;9.63;;;8.65;;
37085;SDS011;23001;45.952;12.676;2024-03-07T00:10:10;10.60;;;9.27;;
37085;SDS011;23001;45.952;12.676;2024-03-07T00:12:37;10.70;;;9.60;;
37085;SDS011;23001;45.952;12.676;2024-03-07T00:15:06;12.80;;;9.82;;
37085;SDS011;23001;45.952;12.676;2024-03-07T00:17:39;13.30;;;9.40;;
37085;SDS011;23001;45.952;12.676;2024-03-07T00:20:05;10.98;;;9.45;;
37085;SDS011;23001;45.952;12.676;2024-03-07T00:22:39;10.27;;;9.23;;
37085;SDS011;23001;45.952;12.676;2024-03-07T00:25:06;12.02;;;9.13;;
37085;SDS011;23001;45.952;12.676;2024-03-07T00:27:34;10.00;;;9.02;;
37085;SDS011;23001;45.952;12.676;2024-03-07T00:30:00;10.80;;;9.80;;
37085;SDS011;23001;45.952;12.676;2024-03-07T00:32:29;9.82;;;8.63;;
37085;SDS011;23001;45.952;12.676;2024-03-07T00:35:00;11.38;;;9.63;;
37085;SDS011;23001;45.952;12.676;2024-03-07T00:37:28;10.50;;;9.45;;
37085;SDS011;23001;45.952;12.676;2024-03-07T00:39:54;12.68;;;9.25;;
37085;SDS011;23001;45.952;12.676;2024-03-07T00:42:19;10.75;;;9.60;;
37085;SDS011;23001;45.952;12.676;2024-03-07T00:44:47;10.93;;;9.82;;
37085;SDS011;23001;45.952;12.676;2024-03-07T00:47:14;11.38;;;9.80;;
37085;SDS011;23001;45.952;12.676;2024-03-07T00:49:42;11.27;;;10.18;;
37085;SDS011;23001;45.952;12.676;2024-03-07T00:52:09;11.38;;;10.23;;
37085;SDS011;23001;45.952;12.676;2024-03-07T00:54:40;12.45;;;10.27;;
37085;SDS011;23001;45.952;12.676;2024-03-07T00:57:27;10.75;;;9.70;;
37085;SDS011;23001;45.952;12.676;2024-03-07T01:00:05;12.88;;;11.55;;
37085;SDS011;23001;45.952;12.676;2024-03-07T01:02:39;12.30;;;11.00;;
37085;SDS011;23001;45.952;12.676;2024-03-07T01:05:08;11.80;;;10.63;;
37085;SDS011;23001;45.952;12.676;2024-03-07T01:07:35;11.65;;;10.48;;
37085;SDS011;23001;45.952;12.676;2024-03-07T01:10:02;12.15;;;11.05;;
37085;SDS011;23001;45.952;12.676;2024-03-07T01:12:32;11.55;;;10.45;;
37085;SDS011;23001;45.952;12.676;2024-03-07T01:14:59;13.85;;;11.80;;
37085;SDS011;23001;45.952;12.676;2024-03-07T01:17:25;12.50;;;11.20;;
37085;SDS011;23001;45.952;12.676;2024-03-07T01:19:51;11.85;;;10.80;;
37085;SDS011;23001;45.952;12.676;2024-03-07T01:22:17;11.65;;;10.52;;
37085;SDS011;23001;45.952;12.676;2024-03-07T01:24:43;12.00;;;10.80;;
37085;SDS011;23001;45.952;12.676;2024-03-07T01:27:09;12.02;;;10.82;;
37085;SDS011;23001;45.952;12.676;2024-03-07T01:29:34;13.07;;;10.68;;
37085;SDS011;23001;45.952;12.676;2024-03-07T01:32:00;13.50;;;10.48;;
37085;SDS011;23001;45.952;12.676;2024-03-07T01:34:28;11.68;;;10.57;;
37085;SDS011;23001;45.952;12.676;2024-03-07T01:36:54;11.32;;;10.30;;
37085;SDS011;23001;45.952;12.676;2024-03-07T01:39:21;10.75;;;9.70;;
37085;SDS011;23001;45.952;12.676;2024-03-07T01:41:48;11.73;;;10.57;;
37085;SDS011;23001;45.952;12.676;2024-03-07T01:44:14;11.00;;;10.00;;
37085;SDS011;23001;45.952;12.676;2024-03-07T01:46:40;11.07;;;9.98;;
37085;SDS011;23001;45.952;12.676;2024-03-07T01:49:09;11.82;;;10.65;;
37085;SDS011;23001;45.952;12.676;2024-03-07T01:51:36;12.70;;;11.50;;
37085;SDS011;23001;45.952;12.676;2024-03-07T01:54:02;11.93;;;10.82;;
37085;SDS011;23001;45.952;12.676;2024-03-07T01:56:28;11.57;;;10.57;;
37085;SDS011;23001;45.952;12.676;2024-03-07T01:58:55;12.10;;;10.93;;
37085;SDS011;23001;45.952;12.676;2024-03-07T02:01:21;13.57;;;11.70;;
37085;SDS011;23001;45.952;12.676;2024-03-07T02:03:48;13.20;;;11.80;;
37085;SDS011;23001;45.952;12.676;2024-03-07T02:06:14;13.10;;;11.77;;
37085;SDS011;23001;45.952;12.676;2024-03-07T02:08:40;13.02;;;11.70;;
37085;SDS011;23001;45.952;12.676;2024-03-07T02:11:06;13.00;;;11.80;;
37085;SDS011;23001;45.952;12.676;2024-03-07T02:13:34;12.77;;;11.38;;
37085;SDS011;23001;45.952;12.676;2024-03-07T02:16:00;13.73;;;12.05;;
37085;SDS011;23001;45.952;12.676;2024-03-07T02:18:26;13.20;;;11.95;;
37085;SDS011;23001;45.952;12.676;2024-03-07T02:20:52;13.02;;;11.82;;
37085;SDS011;23001;45.952;12.676;2024-03-07T02:23:19;13.82;;;12.35;;
37085;SDS011;23001;45.952;12.676;2024-03-07T02:25:45;12.85;;;11.65;;
37085;SDS011;23001;45.952;12.676;2024-03-07T02:28:11;13.65;;;12.40;;
37085;SDS011;23001;45.952;12.676;2024-03-07T02:30:36;14.35;;;12.82;;
37085;SDS011;23001;45.952;12.676;2024-03-07T02:33:02;12.60;;;11.40;;
37085;SDS011;23001;45.952;12.676;2024-03-07T02:35:34;13.00;;;11.75;;
37085;SDS011;23001;45.952;12.676;2024-03-07T02:38:04;13.15;;;11.85;;
37085;SDS011;23001;45.952;12.676;2024-03-07T02:40:30;13.40;;;11.98;;
37085;SDS011;23001;45.952;12.676;2024-03-07T02:42:56;12.98;;;11.77;;
37085;SDS011;23001;45.952;12.676;2024-03-07T02:45:23;12.88;;;11.60;;
37085;SDS011;23001;45.952;12.676;2024-03-07T02:47:48;12.55;;;11.45;;
37085;SDS011;23001;45.952;12.676;2024-03-07T02:50:14;12.27;;;10.77;;
37085;SDS011;23001;45.952;12.676;2024-03-07T02:52:40;13.43;;;11.73;;
37085;SDS011;23001;45.952;12.676;2024-03-07T02:55:06;12.63;;;11.52;;
37085;SDS011;23001;45.952;12.676;2024-03-07T02:57:35;12.43;;;11.13;;
37085;SDS011;23001;45.952;12.676;2024-03-07T03:00:01;12.07;;;10.98;;
37085;SDS011;23001;45.952;12.676;2024-03-07T03:02:38;12.75;;;11.63;;
37085;SDS011;23001;45.952;12.676;2024-03-07T03:05:04;13.13;;;11.80;;
37085;SDS011;23001;45.952;12.676;2024-03-07T03:07:34;12.70;;;11.60;;
37085;SDS011;23001;45.952;12.676;2024-03-07T03:10:00;13.20;;;12.00;;
37085;SDS011;23001;45.952;12.676;2024-03-07T03:12:26;12.85;;;11.55;;
37085;SDS011;23001;45.952;12.676;2024-03-07T03:14:51;13.55;;;12.05;;
37085;SDS011;23001;45.952;12.676;2024-03-07T03:17:18;13.52;;;12.23;;
37085;SDS011;23001;45.952;12.676;2024-03-07T03:19:44;12.43;;;11.13;;
37085;SDS011;23001;45.952;12.676;2024-03-07T03:22:10;12.40;;;11.25;;
37085;SDS011;23001;45.952;12.676;2024-03-07T03:24:36;12.30;;;11.18;;
37085;SDS011;23001;45.952;12.676;2024-03-07T03:27:02;12.23;;;11.02;;
37085;SDS011;23001;45.952;12.676;2024-03-07T03:29:27;13.30;;;12.07;;
37085;SDS011;23001;45.952;12.676;2024-03-07T03:31:54;13.07;;;11.77;;
37085;SDS011;23001;45.952;12.676;2024-03-07T03:34:21;13.57;;;12.35;;
37085;SDS011;23001;45.952;12.676;2024-03-07T03:36:47;12.55;;;11.35;;
37085;SDS011;23001;45.952;12.676;2024-03-07T03:39:12;13.15;;;11.85;;
37085;SDS011;23001;45.952;12.676;2024-03-07T03:41:38;13.57;;;12.32;;
37085;SDS011;23001;45.952;12.676;2024-03-07T03:44:04;14.63;;;12.82;;
37085;SDS011;23001;45.952;12.676;2024-03-07T03:46:31;13.45;;;11.98;;
37085;SDS011;23001;45.952;12.676;2024-03-07T03:48:56;13.50;;;11.98;;
37085;SDS011;23001;45.952;12.676;2024-03-07T03:51:23;13.13;;;11.80;;
37085;SDS011;23001;45.952;12.676;2024-03-07T03:53:50;12.65;;;11.45;;
37085;SDS011;23001;45.952;12.676;2024-03-07T03:56:16;13.32;;;11.68;;
37085;SDS011;23001;45.952;12.676;2024-03-07T03:58:42;13.32;;;12.00;;
37085;SDS011;23001;45.952;12.676;2024-03-07T04:01:08;12.88;;;11.75;;
37085;SDS011;23001;45.952;12.676;2024-03-07T04:03:38;13.55;;;12.15;;
37085;SDS011;23001;45.952;12.676;2024-03-07T04:06:04;13.32;;;11.93;;
37085;SDS011;23001;45.952;12.676;2024-03-07T04:08:30;13.43;;;12.10;;
37085;SDS011;23001;45.952;12.676;2024-03-07T04:10:55;13.35;;;12.05;;
37085;SDS011;23001;45.952;12.676;2024-03-07T04:13:21;13.05;;;11.88;;
37085;SDS011;23001;45.952;12.676;2024-03-07T04:15:47;13.05;;;11.75;;
37085;SDS011;23001;45.952;12.676;2024-03-07T04:18:13;15.85;;;14.25;;
37085;SDS011;23001;45.952;12.676;2024-03-07T04:20:38;14.10;;;12.73;;
37085;SDS011;23001;45.952;12.676;2024-03-07T04:23:04;14.10;;;12.80;;
37085;SDS011;23001;45.952;12.676;2024-03-07T04:25:31;18.10;;;12.18;;
37085;SDS011;23001;45.952;12.676;2024-03-07T04:27:58;21.85;;;14.45;;
37085;SDS011;23001;45.952;12.676;2024-03-07T04:30:24;14.93;;;13.45;;
37085;SDS011;23001;45.952;12.676;2024-03-07T04:32:49;14.30;;;13.00;;
37085;SDS011;23001;45.952;12.676;2024-03-07T04:35:17;14.27;;;12.88;;
37085;SDS011;23001;45.952;12.676;2024-03-07T04:37:42;13.95;;;12.65;;
37085;SDS011;23001;45.952;12.676;2024-03-07T04:40:08;14.43;;;13.02;;
37085;SDS011;23001;45.952;12.676;2024-03-07T04:42:43;14.40;;;13.00;;
37085;SDS011;23001;45.952;12.676;2024-03-07T04:45:14;14.43;;;13.05;;
37085;SDS011;23001;45.952;12.676;2024-03-07T04:47:40;14.07;;;12.77;;
37085;SDS011;23001;45.952;12.676;2024-03-07T04:50:07;16.02;;;14.63;;
37085;SDS011;23001;45.952;12.676;2024-03-07T04:52:36;13.73;;;12.35;;
37085;SDS011;23001;45.952;12.676;2024-03-07T04:55:03;15.80;;;13.63;;
37085;SDS011;23001;45.952;12.676;2024-03-07T04:57:30;15.80;;;11.80;;
37085;SDS011;23001;45.952;12.676;2024-03-07T04:59:56;13.32;;;12.00;;
37085;SDS011;23001;45.952;12.676;2024-03-07T05:02:21;15.95;;;12.60;;
37085;SDS011;23001;45.952;12.676;2024-03-07T05:04:48;14.07;;;12.57;;
37085;SDS011;23001;45.952;12.676;2024-03-07T05:07:15;14.05;;;12.75;;
37085;SDS011;23001;45.952;12.676;2024-03-07T05:09:41;14.48;;;13.07;;
37085;SDS011;23001;45.952;12.676;2024-03-07T05:12:06;13.88;;;12.63;;
37085;SDS011;23001;45.952;12.676;2024-03-07T05:14:34;13.40;;;12.20;;
37085;SDS011;23001;45.952;12.676;2024-03-07T05:16:59;14.18;;;12.57;;
37085;SDS011;23001;45.952;12.676;2024-03-07T05:19:33;13.75;;;12.55;;
37085;SDS011;23001;45.952;12.676;2024-03-07T05:22:00;13.60;;;12.30;;
37085;SDS011;23001;45.952;12.676;2024-03-07T05:24:26;13.50;;;12.30;;
37085;SDS011;23001;45.952;12.676;2024-03-07T05:26:52;13.90;;;12.60;;
37085;SDS011;23001;45.952;12.676;2024-03-07T05:29:19;14.32;;;13.02;;
37085;SDS011;23001;45.952;12.676;2024-03-07T05:31:45;15.88;;;12.82;;
37085;SDS011;23001;45.952;12.676;2024-03-07T05:34:14;13.32;;;12.13;;
37085;SDS011;23001;45.952;12.676;2024-03-07T05:36:48;14.50;;;13.00;;
37085;SDS011;23001;45.952;12.676;2024-03-07T05:39:14;14.30;;;13.00;;
37085;SDS011;23001;45.952;12.676;2024-03-07T05:41:45;14.15;;;12.75;;
37085;SDS011;23001;45.952;12.676;2024-03-07T05:44:10;15.43;;;14.00;;
37085;SDS011;23001;45.952;12.676;2024-03-07T05:46:42;15.15;;;13.68;;
37085;SDS011;23001;45.952;12.676;2024-03-07T05:49:21;14.47;;;12.93;;
37085;SDS011;23001;45.952;12.676;2024-03-07T05:51:47;14.45;;;12.95;;
37085;SDS011;23001;45.952;12.676;2024-03-07T05:54:16;13.75;;;12.38;;
37085;SDS011;23001;45.952;12.676;2024-03-07T05:56:42;14.38;;;12.88;;
37085;SDS011;23001;45.952;12.676;2024-03-07T05:59:08;14.23;;;12.82;;
37085;SDS011;23001;45.952;12.676;2024-03-07T06:01:38;14.30;;;12.80;;
37085;SDS011;23001;45.952;12.676;2024-03-07T06:04:05;14.63;;;12.98;;
37085;SDS011;23001;45.952;12.676;2024-03-07T06:06:31;15.05;;;13.63;;
37085;SDS011;23001;45.952;12.676;2024-03-07T06:08:58;15.48;;;14.05;;
37085;SDS011;23001;45.952;12.676;2024-03-07T06:11:27;14.18;;;12.88;;
37085;SDS011;23001;45.952;12.676;2024-03-07T06:13:53;15.55;;;14.02;;
37085;SDS011;23001;45.952;12.676;2024-03-07T06:16:19;14.32;;;13.00;;
37085;SDS011;23001;45.952;12.676;2024-03-07T06:18:45;14.88;;;13.43;;
37085;SDS011;23001;45.952;12.676;2024-03-07T06:21:12;14.35;;;13.00;;
37085;SDS011;23001;45.952;12.676;2024-03-07T06:23:38;15.15;;;13.65;;
37085;SDS011;23001;45.952;12.676;2024-03-07T06:26:04;14.23;;;12.93;;
37085;SDS011;23001;45.952;12.676;2024-03-07T06:28:37;16.27;;;14.63;;
37085;SDS011;23001;45.952;12.676;2024-03-07T06:31:04;16.23;;;14.60;;
37085;SDS011;23001;45.952;12.676;2024-03-07T06:33:32;18.48;;;16.55;;
37085;SDS011;23001;45.952;12.676;2024-03-07T06:35:59;19.85;;;17.50;;
37085;SDS011;23001;45.952;12.676;2024-03-07T06:38:26;18.30;;;16.50;;
37085;SDS011;23001;45.952;12.676;2024-03-07T06:40:52;21.98;;;17.17;;
37085;SDS011;23001;45.952;12.676;2024-03-07T06:43:18;22.60;;;19.08;;
37085;SDS011;23001;45.952;12.676;2024-03-07T06:45:43;31.58;;;19.70;;
37085;SDS011;23001;45.952;12.676;2024-03-07T06:48:11;19.40;;;17.42;;
37085;SDS011;23001;45.952;12.676;2024-03-07T06:50:39;19.73;;;17.63;;
37085;SDS011;23001;45.952;12.676;2024-03-07T06:53:05;19.73;;;17.75;;
37085;SDS011;23001;45.952;12.676;2024-03-07T06:55:32;18.48;;;16.55;;
37085;SDS011;23001;45.952;12.676;2024-03-07T06:57:59;18.25;;;16.40;;
37085;SDS011;23001;45.952;12.676;2024-03-07T07:00:25;16.00;;;14.32;;
37085;SDS011;23001;45.952;12.676;2024-03-07T07:02:51;16.10;;;14.60;;
37085;SDS011;23001;45.952;12.676;2024-03-07T07:05:19;15.32;;;13.82;;
37085;SDS011;23001;45.952;12.676;2024-03-07T07:07:46;22.05;;;14.73;;
37085;SDS011;23001;45.952;12.676;2024-03-07T07:10:12;15.88;;;14.18;;
37085;SDS011;23001;45.952;12.676;2024-03-07T07:12:43;15.90;;;14.30;;
37085;SDS011;23001;45.952;12.676;2024-03-07T07:15:10;15.95;;;14.35;;
37085;SDS011;23001;45.952;12.676;2024-03-07T07:17:40;17.20;;;15.45;;
37085;SDS011;23001;45.952;12.676;2024-03-07T07:20:07;16.08;;;14.52;;
37085;SDS011;23001;45.952;12.676;2024-03-07T07:22:39;14.82;;;13.43;;
37085;SDS011;23001;45.952;12.676;2024-03-07T07:25:05;13.43;;;12.23;;
37085;SDS011;23001;45.952;12.676;2024-03-07T07:27:38;12.30;;;11.10;;
37085;SDS011;23001;45.952;12.676;2024-03-07T07:30:11;14.32;;;13.02;;
37085;SDS011;23001;45.952;12.676;2024-03-07T07:32:40;12.88;;;11.68;;
37085;SDS011;23001;45.952;12.676;2024-03-07T07:35:06;13.40;;;12.00;;
37085;SDS011;23001;45.952;12.676;2024-03-07T07:37:36;13.40;;;11.85;;
37085;SDS011;23001;45.952;12.676;2024-03-07T07:40:10;11.55;;;10.40;;
37085;SDS011;23001;45.952;12.676;2024-03-07T07:42:43;11.90;;;10.63;;
37085;SDS011;23001;45.952;12.676;2024-03-07T07:45:12;11.75;;;10.45;;
37085;SDS011;23001;45.952;12.676;2024-03-07T07:47:40;11.75;;;10.55;;
37085;SDS011;23001;45.952;12.676;2024-03-07T07:50:10;10.07;;;9.05;;
37085;SDS011;23001;45.952;12.676;2024-03-07T07:52:43;10.80;;;9.80;;
37085;SDS011;23001;45.952;12.676;2024-03-07T07:55:13;10.38;;;9.38;;
37085;SDS011;23001;45.952;12.676;2024-03-07T07:57:52;9.98;;;8.85;;
37085;SDS011;23001;45.952;12.676;2024-03-07T08:00:23;10.48;;;9.48;;
37085;SDS011;23001;45.952;12.676;2024-03-07T08:05:20;11.48;;;10.27;;
37085;SDS011;23001;45.952;12.676;2024-03-07T08:07:50;12.05;;;10.75;;
37085;SDS011;23001;45.952;12.676;2024-03-07T08:10:19;11.50;;;10.30;;
37085;SDS011;23001;45.952;12.676;2024-03-07T08:12:49;12.77;;;9.93;;
37085;SDS011;23001;45.952;12.676;2024-03-07T08:15:18;14.25;;;9.75;;
37085;SDS011;23001;45.952;12.676;2024-03-07T08:17:47;10.48;;;9.25;;
37085;SDS011;23001;45.952;12.676;2024-03-07T08:20:17;10.43;;;9.32;;
37085;SDS011;23001;45.952;12.676;2024-03-07T08:22:48;11.50;;;9.93;;
37085;SDS011;23001;45.952;12.676;2024-03-07T08:25:18;12.25;;;10.18;;
37085;SDS011;23001;45.952;12.676;2024-03-07T08:27:49;13.38;;;10.35;;
37085;SDS011;23001;45.952;12.676;2024-03-07T08:30:33;10.88;;;8.95;;
37085;SDS011;23001;45.952;12.676;2024-03-07T08:33:00;12.25;;;9.20;;
37085;SDS011;23001;45.952;12.676;2024-03-07T08:35:29;10.10;;;9.10;;
37085;SDS011;23001;45.952;12.676;2024-03-07T08:37:55;10.93;;;9.57;;
37085;SDS011;23001;45.952;12.676;2024-03-07T08:40:25;11.63;;;9.43;;
37085;SDS011;23001;45.952;12.676;2024-03-07T08:42:56;12.05;;;9.90;;
37085;SDS011;23001;45.952;12.676;2024-03-07T08:45:22;11.00;;;9.52;;
37085;SDS011;23001;45.952;12.676;2024-03-07T08:47:49;12.32;;;10.52;;
37085;SDS011;23001;45.952;12.676;2024-03-07T08:50:16;12.63;;;10.60;;
37085;SDS011;23001;45.952;12.676;2024-03-07T08:52:43;15.50;;;11.15;;
37085;SDS011;23001;45.952;12.676;2024-03-07T08:55:12;15.15;;;12.57;;
37085;SDS011;23001;45.952;12.676;2024-03-07T08:57:39;14.27;;;11.50;;
37085;SDS011;23001;45.952;12.676;2024-03-07T09:00:06;12.77;;;11.38;;
37085;SDS011;23001;45.952;12.676;2024-03-07T09:02:52;15.30;;;12.13;;
37085;SDS011;23001;45.952;12.676;2024-03-07T09:05:19;16.85;;;12.80;;
37085;SDS011;23001;45.952;12.676;2024-03-07T09:07:47;15.00;;;12.90;;
37085;SDS011;23001;45.952;12.676;2024-03-07T09:10:13;14.55;;;12.30;;
37085;SDS011;23001;45.952;12.676;2024-03-07T09:12:45;16.80;;;13.45;;
37085;SDS011;23001;45.952;12.676;2024-03-07T09:15:17;19.33;;;14.00;;
37085;SDS011;23001;45.952;12.676;2024-03-07T09:17:44;17.25;;;13.57;;
37085;SDS011;23001;45.952;12.676;2024-03-07T09:20:17;15.50;;;13.88;;
37085;SDS011;23001;45.952;12.676;2024-03-07T09:22:44;15.75;;;14.02;;
37085;SDS011;23001;45.952;12.676;2024-03-07T09:25:10;16.60;;;14.80;;
37085;SDS011;23001;45.952;12.676;2024-03-07T09:27:41;18.48;;;16.48;;
37085;SDS011;23001;45.952;12.676;2024-03-07T09:30:07;21.50;;;16.83;;
37085;SDS011;23001;45.952;12.676;2024-03-07T09:32:40;18.95;;;16.95;;
37085;SDS011;23001;45.952;12.676;2024-03-07T09:35:09;19.92;;;16.67;;
37085;SDS011;23001;45.952;12.676;2024-03-07T09:37:42;17.92;;;15.52;;
37085;SDS011;23001;45.952;12.676;2024-03-07T09:40:08;17.42;;;15.10;;
37085;SDS011;23001;45.952;12.676;2024-03-07T09:45:09;19.52;;;15.20;;
37085;SDS011;23001;45.952;12.676;2024-03-07T09:47:41;16.45;;;14.75;;
37085;SDS011;23001;45.952;12.676;2024-03-07T09:50:09;17.17;;;14.30;;
37085;SDS011;23001;45.952;12.676;2024-03-07T09:52:35;20.13;;;13.60;;
37085;SDS011;23001;45.952;12.676;2024-03-07T09:55:01;18.30;;;14.05;;
37085;SDS011;23001;45.952;12.676;2024-03-07T09:57:28;15.35;;;13.07;;
37085;SDS011;23001;45.952;12.676;2024-03-07T09:59:59;18.52;;;13.15;;
37085;SDS011;23001;45.952;12.676;2024-03-07T10:02:27;15.52;;;12.18;;
37085;SDS011;23001;45.952;12.676;2024-03-07T10:04:57;12.82;;;9.75;;
37085;SDS011;23001;45.952;12.676;2024-03-07T10:07:27;13.13;;;9.18;;
37085;SDS011;23001;45.952;12.676;2024-03-07T10:09:54;15.27;;;10.27;;
37085;SDS011;23001;45.952;12.676;2024-03-07T10:12:22;11.68;;;9.20;;
37085;SDS011;23001;45.952;12.676;2024-03-07T10:14:49;11.05;;;9.65;;
37085;SDS011;23001;45.952;12.676;2024-03-07T10:17:23;13.57;;;10.93;;
37085;SDS011;23001;45.952;12.676;2024-03-07T10:19:51;13.57;;;9.95;;
37085;SDS011;23001;45.952;12.676;2024-03-07T10:22:18;12.10;;;8.85;;
37085;SDS011;23001;45.952;12.676;2024-03-07T10:24:51;11.43;;;9.10;;
37085;SDS011;23001;45.952;12.676;2024-03-07T10:27:19;12.23;;;9.18;;
37085;SDS011;23001;45.952;12.676;2024-03-07T10:29:48;11.20;;;9.13;;
37085;SDS011;23001;45.952;12.676;2024-03-07T10:32:20;13.77;;;10.32;;
37085;SDS011;23001;45.952;12.676;2024-03-07T10:34:50;12.68;;;9.48;;
37085;SDS011;23001;45.952;12.676;2024-03-07T10:37:17;11.02;;;9.25;;
37085;SDS011;23001;45.952;12.676;2024-03-07T10:39:48;13.30;;;9.98;;
37085;SDS011;23001;45.952;12.676;2024-03-07T10:42:16;11.63;;;8.93;;
37085;SDS011;23001;45.952;12.676;2024-03-07T10:44:44;13.73;;;9.57;;
37085;SDS011;23001;45.952;12.676;2024-03-07T10:47:15;13.60;;;9.82;;
37085;SDS011;23001;45.952;12.676;2024-03-07T10:50:00;14.38;;;10.07;;
37085;SDS011;23001;45.952;12.676;2024-03-07T10:52:43;14.95;;;10.20;;
37085;SDS011;23001;45.952;12.676;2024-03-07T11:01:27;17.95;;;12.00;;
37085;SDS011;23001;45.952;12.676;2024-03-07T11:04:07;13.20;;;9.73;;
37085;SDS011;23001;45.952;12.676;2024-03-07T11:06:33;13.75;;;10.57;;
37085;SDS011;23001;45.952;12.676;2024-03-07T11:08:59;11.07;;;8.52;;
37085;SDS011;23001;45.952;12.676;2024-03-07T11:11:26;9.57;;;7.72;;
37085;SDS011;23001;45.952;12.676;2024-03-07T11:13:53;9.13;;;7.95;;
37085;SDS011;23001;45.952;12.676;2024-03-07T11:16:24;12.35;;;9.20;;
37085;SDS011;23001;45.952;12.676;2024-03-07T11:21:56;11.55;;;9.02;;
37085;SDS011;23001;45.952;12.676;2024-03-07T11:24:28;11.93;;;8.68;;
37085;SDS011;23001;45.952;12.676;2024-03-07T11:26:56;12.48;;;8.90;;
37085;SDS011;23001;45.952;12.676;2024-03-07T11:29:38;15.55;;;10.55;;
37085;SDS011;23001;45.952;12.676;2024-03-07T11:32:21;31.30;;;26.15;;
37085;SDS011;23001;45.952;12.676;2024-03-07T11:34:47;16.23;;;12.38;;
37085;SDS011;23001;45.952;12.676;2024-03-07T11:37:18;13.15;;;11.70;;
37085;SDS011;23001;45.952;12.676;2024-03-07T11:39:47;14.15;;;11.55;;
37085;SDS011;23001;45.952;12.676;2024-03-07T11:42:36;9.48;;;7.45;;
37085;SDS011;23001;45.952;12.676;2024-03-07T11:45:02;10.57;;;9.45;;
37085;SDS011;23001;45.952;12.676;2024-03-07T11:47:40;10.80;;;6.78;;
37085;SDS011;23001;45.952;12.676;2024-03-07T11:50:09;7.20;;;5.65;;
37085;SDS011;23001;45.952;12.676;2024-03-07T11:52:44;7.18;;;6.40;;
37085;SDS011;23001;45.952;12.676;2024-03-07T11:55:11;9.55;;;5.95;;
37085;SDS011;23001;45.952;12.676;2024-03-07T11:57:38;7.28;;;5.90;;
37085;SDS011;23001;45.952;12.676;2024-03-07T12:00:05;7.03;;;5.95;;
37085;SDS011;23001;45.952;12.676;2024-03-07T12:02:36;8.93;;;6.65;;
37085;SDS011;23001;45.952;12.676;2024-03-07T12:05:03;6.65;;;5.03;;
37085;SDS011;23001;45.952;12.676;2024-03-07T12:07:32;7.32;;;5.13;;
37085;SDS011;23001;45.952;12.676;2024-03-07T12:09:59;6.88;;;4.78;;
37085;SDS011;23001;45.952;12.676;2024-03-07T12:12:28;5.95;;;4.60;;
37085;SDS011;23001;45.952;12.676;2024-03-07T12:14:54;5.65;;;4.72;;
37085;SDS011;23001;45.952;12.676;2024-03-07T12:17:21;6.38;;;5.07;;
37085;SDS011;23001;45.952;12.676;2024-03-07T12:19:48;8.30;;;6.30;;
37085;SDS011;23001;45.952;12.676;2024-03-07T12:22:20;7.55;;;5.97;;
37085;SDS011;23001;45.952;12.676;2024-03-07T12:25:01;9.40;;;6.65;;
37085;SDS011;23001;45.952;12.676;2024-03-07T12:27:30;8.13;;;6.22;;
37085;SDS011;23001;45.952;12.676;2024-03-07T12:29:57;7.35;;;6.25;;
37085;SDS011;23001;45.952;12.676;2024-03-07T12:32:26;7.82;;;6.35;;
37085;SDS011;23001;45.952;12.676;2024-03-07T12:34:51;7.18;;;5.97;;
37085;SDS011;23001;45.952;12.676;2024-03-07T12:37:18;10.98;;;8.02;;
37085;SDS011;23001;45.952;12.676;2024-03-07T12:39:46;66.68;;;46.38;;
37085;SDS011;23001;45.952;12.676;2024-03-07T12:42:26;44.42;;;30.05;;
37085;SDS011;23001;45.952;12.676;2024-03-07T12:44:54;8.93;;;7.82;;
37085;SDS011;23001;45.952;12.676;2024-03-07T12:47:19;10.52;;;9.15;;
37085;SDS011;23001;45.952;12.676;2024-03-07T12:49:45;10.38;;;8.45;;
37085;SDS011;23001;45.952;12.676;2024-03-07T12:52:11;7.22;;;5.82;;
37085;SDS011;23001;45.952;12.676;2024-03-07T12:54:40;4.70;;;4.20;;
37085;SDS011;23001;45.952;12.676;2024-03-07T12:57:07;4.75;;;3.85;;
37085;SDS011;23001;45.952;12.676;2024-03-07T12:59:40;7.25;;;4.97;;
37085;SDS011;23001;45.952;12.676;2024-03-07T13:02:06;4.80;;;4.13;;
37085;SDS011;23001;45.952;12.676;2024-03-07T13:04:33;5.45;;;3.95;;
37085;SDS011;23001;45.952;12.676;2024-03-07T13:06:59;6.18;;;3.90;;
37085;SDS011;23001;45.952;12.676;2024-03-07T13:09:26;5.75;;;3.80;;
37085;SDS011;23001;45.952;12.676;2024-03-07T13:11:53;4.93;;;4.28;;
37085;SDS011;23001;45.952;12.676;2024-03-07T13:14:22;4.50;;;3.63;;
37085;SDS011;23001;45.952;12.676;2024-03-07T13:16:55;4.70;;;4.00;;
37085;SDS011;23001;45.952;12.676;2024-03-07T13:19:21;5.25;;;4.53;;
37085;SDS011;23001;45.952;12.676;2024-03-07T13:21:47;6.07;;;4.78;;
37085;SDS011;23001;45.952;12.676;2024-03-07T13:24:16;7.30;;;4.38;;
37085;SDS011;23001;45.952;12.676;2024-03-07T13:26:42;5.70;;;4.10;;
37085;SDS011;23001;45.952;12.676;2024-03-07T13:29:08;5.68;;;4.22;;
37085;SDS011;23001;45.952;12.676;2024-03-07T13:31:35;5.32;;;3.60;;
37085;SDS011;23001;45.952;12.676;2024-03-07T13:34:00;4.55;;;3.92;;
37085;SDS011;23001;45.952;12.676;2024-03-07T13:36:27;6.68;;;4.22;;
37085;SDS011;23001;45.952;12.676;2024-03-07T13:38:53;5.47;;;4.45;;
37085;SDS011;23001;45.952;12.676;2024-03-07T13:41:21;4.55;;;4.00;;
37085;SDS011;23001;45.952;12.676;2024-03-07T13:43:47;6.40;;;4.03;;
37085;SDS011;23001;45.952;12.676;2024-03-07T13:46:14;5.75;;;4.68;;
37085;SDS011;23001;45.952;12.676;2024-03-07T13:48:42;5.65;;;4.75;;
37085;SDS011;23001;45.952;12.676;2024-03-07T13:51:09;6.28;;;4.78;;
37085;SDS011;23001;45.952;12.676;2024-03-07T13:53:40;5.20;;;4.70;;
37085;SDS011;23001;45.952;12.676;2024-03-07T13:56:42;6.65;;;4.45;;
37085;SDS011;23001;45.952;12.676;2024-03-07T14:14:36;6.85;;;4.30;;
37085;SDS011;23001;45.952;12.676;2024-03-07T14:29:12;7.78;;;5.20;;
37085;SDS011;23001;45.952;12.676;2024-03-07T14:31:51;6.55;;;5.15;;
37085;SDS011;23001;45.952;12.676;2024-03-07T14:34:29;9.00;;;6.20;;
37085;SDS011;23001;45.952;12.676;2024-03-07T14:37:27;11.00;;;7.45;;
37085;SDS011;23001;45.952;12.676;2024-03-07T14:40:07;8.93;;;7.05;;
37085;SDS011;23001;45.952;12.676;2024-03-07T14:42:36;10.10;;;5.78;;
37085;SDS011;23001;45.952;12.676;2024-03-07T14:45:06;7.80;;;6.47;;
37085;SDS011;23001;45.952;12.676;2024-03-07T14:47:40;8.35;;;6.72;;
37085;SDS011;23001;45.952;12.676;2024-03-07T14:50:13;10.77;;;7.20;;
37085;SDS011;23001;45.952;12.676;2024-03-07T14:52:55;9.70;;;6.65;;
37085;SDS011;23001;45.952;12.676;2024-03-07T14:55:21;9.43;;;6.28;;
37085;SDS011;23001;45.952;12.676;2024-03-07T14:57:47;9.10;;;8.20;;
37085;SDS011;23001;45.952;12.676;2024-03-07T15:00:13;10.65;;;6.50;;
37085;SDS011;23001;45.952;12.676;2024-03-07T15:02:47;8.35;;;6.03;;
37085;SDS011;23001;45.952;12.676;2024-03-07T15:05:17;11.13;;;6.38;;